Time;durP1;ratioP1;P1;durP2;ratioP2;P2;SDS_P1;SDS_P2;PMS_P1;PMS_P2;Temp;Humidity;BMP_temperature;BMP_pressure;BME280_temperature;BME280_humidity;BME280_pressure;Samples;Min_cycle;Max_cycle;Signal;HPM_P1;HPM_P2
2021/05/04 00:00:36;;;;;;;8.30;7.03;;;;;;;;;;1469146;40;20993;-81
2021/05/04 00:01:37;;;;;;;7.43;6.68;;;;;;;;;;1466077;40;20427;-81
2021/05/04 00:02:38;;;;;;;9.13;6.93;;;;;;;;;;1469412;40;20668;-81
2021/05/04 00:03:40;;;;;;;10.95;7.03;;;;;;;;;;1461232;40;20517;-82
2021/05/04 00:04:41;;;;;;;12.48;7.38;;;;;;;;;;1460787;40;20410;-82
2021/05/04 00:05:42;;;;;;;8.63;7.13;;;;;;;;;;1465607;40;20414;-82
2021/05/04 00:06:43;;;;;;;8.57;7.05;;;;;;;;;;1461120;40;20686;-82
2021/05/04 00:07:44;;;;;;;9.40;7.30;;;;;;;;;;1460944;40;20505;-81
2021/05/04 00:08:45;;;;;;;7.82;7.03;;;;;;;;;;1465430;40;20423;-82
2021/05/04 00:09:46;;;;;;;10.23;6.72;;;;;;;;;;1465737;40;20446;-81
2021/05/04 00:10:48;;;;;;;7.95;7.10;;;;;;;;;;1461423;40;20420;-82
2021/05/04 00:11:53;;;;;;;8.98;6.93;;;;;;;;;;1466020;40;20387;-82
2021/05/04 00:12:54;;;;;;;8.85;6.72;;;;;;;;;;1466989;40;20430;-82
2021/05/04 00:13:55;;;;;;;9.00;7.13;;;;;;;;;;1469506;40;20441;-81
2021/05/04 00:14:56;;;;;;;10.32;7.05;;;;;;;;;;1465350;40;20407;-82
2021/05/04 00:15:57;;;;;;;8.57;7.43;;;;;;;;;;1465494;40;20492;-81
2021/05/04 00:16:58;;;;;;;7.10;6.50;;;;;;;;;;1468942;40;20428;-81
2021/05/04 00:17:59;;;;;;;7.00;6.30;;;;;;;;;;1465494;40;20403;-81
2021/05/04 00:19:01;;;;;;;7.80;7.00;;;;;;;;;;1465167;40;20451;-81
2021/05/04 00:20:03;;;;;;;8.48;6.45;;;;;;;;;;1461389;40;20424;-82
2021/05/04 00:21:04;;;;;;;7.57;6.70;;;;;;;;;;1461525;40;20536;-81
2021/05/04 00:22:06;;;;;;;7.65;6.60;;;;;;;;;;1465830;40;20419;-82
2021/05/04 00:23:06;;;;;;;9.88;7.13;;;;;;;;;;1461227;40;20437;-81
2021/05/04 00:24:08;;;;;;;7.80;6.95;;;;;;;;;;1457473;40;20430;-81
2021/05/04 00:25:09;;;;;;;7.82;7.07;;;;;;;;;;1460985;40;20734;-81
2021/05/04 00:26:11;;;;;;;7.95;7.25;;;;;;;;;;1462487;40;20433;-80
2021/05/04 00:27:12;;;;;;;9.05;7.32;;;;;;;;;;1465357;40;20432;-80
2021/05/04 00:28:14;;;;;;;7.75;6.95;;;;;;;;;;1465678;40;20396;-84
2021/05/04 00:29:29;;;;;;;10.00;7.35;;;;;;;;;;1468711;40;20414;-80
2021/05/04 00:30:30;;;;;;;8.00;7.30;;;;;;;;;;1469930;40;20417;-81
2021/05/04 00:31:31;;;;;;;7.27;6.57;;;;;;;;;;1469834;40;20951;-81
2021/05/04 00:32:32;;;;;;;8.35;7.03;;;;;;;;;;1470174;40;20397;-80
2021/05/04 00:33:33;;;;;;;7.65;6.90;;;;;;;;;;1465172;40;20601;-81
2021/05/04 00:34:35;;;;;;;8.10;6.80;;;;;;;;;;1461481;40;20481;-81
2021/05/04 00:35:36;;;;;;;10.20;6.45;;;;;;;;;;1465383;40;20832;-81
2021/05/04 00:36:38;;;;;;;8.55;6.75;;;;;;;;;;1465124;40;20500;-81
2021/05/04 00:37:38;;;;;;;8.00;7.20;;;;;;;;;;1469466;40;20417;-81
2021/05/04 00:38:39;;;;;;;7.80;6.75;;;;;;;;;;1469961;40;20413;-80
2021/05/04 00:39:41;;;;;;;7.38;6.65;;;;;;;;;;1465244;40;20427;-81
2021/05/04 00:40:44;;;;;;;6.93;5.95;;;;;;;;;;1465429;40;20403;-81
2021/05/04 00:41:45;;;;;;;10.25;5.85;;;;;;;;;;1468633;40;20758;-80
2021/05/04 00:42:47;;;;;;;6.95;5.97;;;;;;;;;;1468216;40;20402;-80
2021/05/04 00:44:00;;;;;;;7.57;5.75;;;;;;;;;;1461426;40;20449;-81
2021/05/04 00:45:01;;;;;;;7.78;6.30;;;;;;;;;;1466676;40;20404;-81
2021/05/04 00:46:02;;;;;;;10.83;6.27;;;;;;;;;;1465598;40;20536;-81
2021/05/04 00:47:04;;;;;;;8.98;5.95;;;;;;;;;;1465921;40;20404;-82
2021/05/04 00:48:05;;;;;;;6.20;5.60;;;;;;;;;;1464848;40;20412;-81
2021/05/04 00:49:06;;;;;;;6.38;5.70;;;;;;;;;;1461369;40;20419;-80
2021/05/04 00:50:07;;;;;;;6.90;5.32;;;;;;;;;;1457222;40;20644;-81
2021/05/04 00:51:08;;;;;;;6.22;5.43;;;;;;;;;;1461833;40;20416;-81
2021/05/04 00:52:10;;;;;;;6.13;5.47;;;;;;;;;;1465224;40;20685;-80
2021/05/04 00:53:11;;;;;;;6.65;6.00;;;;;;;;;;1469655;40;20417;-80
2021/05/04 00:54:12;;;;;;;7.50;5.85;;;;;;;;;;1469407;40;20413;-81
2021/05/04 00:55:14;;;;;;;6.97;5.53;;;;;;;;;;1465730;40;20415;-80
2021/05/04 00:56:16;;;;;;;6.63;5.45;;;;;;;;;;1465855;40;20419;-82
2021/05/04 00:57:18;;;;;;;6.72;5.10;;;;;;;;;;1471085;40;20687;-83
2021/05/04 00:58:19;;;;;;;7.60;4.53;;;;;;;;;;1472542;40;20428;-82
2021/05/04 00:59:23;;;;;;;5.82;3.50;;;;;;;;;;1468473;40;20415;-82
2021/05/04 01:00:27;;;;;;;5.10;3.58;;;;;;;;;;1463871;40;20831;-81
2021/05/04 01:01:30;;;;;;;4.50;3.40;;;;;;;;;;1464462;40;20412;-80
2021/05/04 01:02:31;;;;;;;6.20;3.00;;;;;;;;;;1463749;40;20429;-80
2021/05/04 01:03:33;;;;;;;6.20;3.22;;;;;;;;;;1465387;40;20454;-81
2021/05/04 01:04:34;;;;;;;5.18;2.38;;;;;;;;;;1470103;40;20413;-80
2021/05/04 01:05:34;;;;;;;4.95;2.55;;;;;;;;;;1470477;40;20436;-80
2021/05/04 01:06:36;;;;;;;6.57;2.42;;;;;;;;;;1464308;40;20558;-80
2021/05/04 01:07:40;;;;;;;3.45;3.10;;;;;;;;;;1461882;40;20437;-80
2021/05/04 01:08:41;;;;;;;6.18;2.97;;;;;;;;;;1465872;40;21021;-80
2021/05/04 01:09:45;;;;;;;3.47;2.60;;;;;;;;;;1461705;40;20402;-80
2021/05/04 01:10:46;;;;;;;5.07;2.42;;;;;;;;;;1462002;40;20413;-80
2021/05/04 01:11:47;;;;;;;3.92;3.08;;;;;;;;;;1470487;40;20772;-80
2021/05/04 01:12:48;;;;;;;4.32;2.17;;;;;;;;;;1469525;40;20406;-80
2021/05/04 01:13:51;;;;;;;6.15;3.10;;;;;;;;;;1470168;40;20679;-81
2021/05/04 01:14:52;;;;;;;8.05;3.20;;;;;;;;;;1473326;40;20418;-80
2021/05/04 01:15:54;;;;;;;5.32;2.55;;;;;;;;;;1473691;40;20402;-81
2021/05/04 01:16:55;;;;;;;4.70;2.55;;;;;;;;;;1469616;40;20427;-80
2021/05/04 01:17:56;;;;;;;4.17;2.37;;;;;;;;;;1466130;40;20505;-81
2021/05/04 01:18:57;;;;;;;2.60;2.40;;;;;;;;;;1462918;40;20446;-79
2021/05/04 01:19:58;;;;;;;5.13;2.45;;;;;;;;;;1466067;40;20409;-79
2021/05/04 01:21:00;;;;;;;4.63;2.35;;;;;;;;;;1470120;40;20443;-81
2021/05/04 01:22:02;;;;;;;3.55;2.22;;;;;;;;;;1467783;40;20422;-81
2021/05/04 01:23:05;;;;;;;4.90;1.90;;;;;;;;;;1471446;40;20663;-80
2021/05/04 01:24:06;;;;;;;2.55;2.35;;;;;;;;;;1466151;40;20426;-80
2021/05/04 01:25:08;;;;;;;4.57;1.87;;;;;;;;;;1462015;40;20487;-80
2021/05/04 01:26:09;;;;;;;8.45;2.42;;;;;;;;;;1465904;40;20463;-80
2021/05/04 01:27:12;;;;;;;4.13;2.38;;;;;;;;;;1470108;40;20401;-80
2021/05/04 01:28:14;;;;;;;4.35;2.30;;;;;;;;;;1469896;40;20687;-80
2021/05/04 01:29:15;;;;;;;3.40;2.10;;;;;;;;;;1465717;40;20404;-81
2021/05/04 01:30:16;;;;;;;3.28;2.08;;;;;;;;;;1465405;40;20407;-81
2021/05/04 01:31:17;;;;;;;5.25;2.35;;;;;;;;;;1469299;40;20490;-82
2021/05/04 01:32:18;;;;;;;4.28;2.15;;;;;;;;;;1469239;40;21047;-81
2021/05/04 01:33:19;;;;;;;4.70;2.33;;;;;;;;;;1469402;40;20872;-81
2021/05/04 01:34:21;;;;;;;3.92;2.25;;;;;;;;;;1465290;40;20411;-81
2021/05/04 01:35:22;;;;;;;3.42;2.22;;;;;;;;;;1465927;40;21170;-80
2021/05/04 01:36:23;;;;;;;3.72;2.10;;;;;;;;;;1465301;40;20427;-81
2021/05/04 01:37:24;;;;;;;3.47;2.72;;;;;;;;;;1466509;40;20465;-82
2021/05/04 01:38:25;;;;;;;3.17;2.30;;;;;;;;;;1471036;40;20418;-81
2021/05/04 01:39:53;;;;;;;4.40;2.50;;;;;;;;;;1471225;40;20498;-80
2021/05/04 01:40:54;;;;;;;4.65;2.35;;;;;;;;;;1470193;40;20409;-81
2021/05/04 01:41:55;;;;;;;4.82;2.53;;;;;;;;;;1471609;40;20394;-80
2021/05/04 01:42:57;;;;;;;6.97;2.70;;;;;;;;;;1471625;40;20414;-80
2021/05/04 01:43:58;;;;;;;2.80;2.05;;;;;;;;;;1462442;40;20464;-83
2021/05/04 01:45:00;;;;;;;6.25;2.03;;;;;;;;;;1463576;40;20416;-80
2021/05/04 01:46:01;;;;;;;4.93;2.15;;;;;;;;;;1467678;40;20415;-82
2021/05/04 01:47:02;;;;;;;3.92;2.05;;;;;;;;;;1467442;40;20465;-81
2021/05/04 01:48:04;;;;;;;4.63;2.47;;;;;;;;;;1467881;40;20439;-81
2021/05/04 01:49:07;;;;;;;4.18;2.00;;;;;;;;;;1468240;40;20423;-80
2021/05/04 01:50:08;;;;;;;4.80;2.30;;;;;;;;;;1467944;40;20411;-80
2021/05/04 01:51:09;;;;;;;4.15;2.30;;;;;;;;;;1473119;40;20402;-81
2021/05/04 01:52:11;;;;;;;6.72;2.22;;;;;;;;;;1464033;40;20409;-81
2021/05/04 01:53:12;;;;;;;3.55;1.90;;;;;;;;;;1464455;40;20436;-80
2021/05/04 01:54:13;;;;;;;7.82;2.17;;;;;;;;;;1473593;40;20663;-80
2021/05/04 01:55:14;;;;;;;5.15;2.10;;;;;;;;;;1474653;40;20505;-81
2021/05/04 01:56:20;;;;;;;5.72;2.10;;;;;;;;;;1474777;40;20421;-82
2021/05/04 01:57:22;;;;;;;4.03;1.90;;;;;;;;;;1467669;40;20422;-81
2021/05/04 01:58:23;;;;;;;6.43;2.20;;;;;;;;;;1466258;40;20404;-80
2021/05/04 01:59:25;;;;;;;5.18;1.92;;;;;;;;;;1470547;40;20421;-81
2021/05/04 02:00:26;;;;;;;7.00;1.90;;;;;;;;;;1471110;40;20491;-80
2021/05/04 02:01:28;;;;;;;2.40;1.88;;;;;;;;;;1468861;40;20425;-80
2021/05/04 02:02:29;;;;;;;4.03;1.83;;;;;;;;;;1470205;40;20398;-81
2021/05/04 02:03:30;;;;;;;4.40;2.00;;;;;;;;;;1472236;40;21204;-81
2021/05/04 02:04:32;;;;;;;3.97;2.17;;;;;;;;;;1470281;40;20401;-79
2021/05/04 02:05:33;;;;;;;4.57;2.00;;;;;;;;;;1469920;40;20401;-81
2021/05/04 02:06:34;;;;;;;3.13;2.00;;;;;;;;;;1465487;40;20501;-80
2021/05/04 02:07:35;;;;;;;5.68;2.13;;;;;;;;;;1461652;40;20413;-81
2021/05/04 02:08:36;;;;;;;4.80;2.10;;;;;;;;;;1465188;40;20498;-81
2021/05/04 02:09:37;;;;;;;5.32;2.70;;;;;;;;;;1468854;40;20434;-81
2021/05/04 02:10:38;;;;;;;4.50;2.40;;;;;;;;;;1465104;40;20453;-81
2021/05/04 02:11:40;;;;;;;2.58;2.33;;;;;;;;;;1465147;40;20430;-81
2021/05/04 02:12:41;;;;;;;5.03;2.63;;;;;;;;;;1468812;40;21320;-82
2021/05/04 02:13:43;;;;;;;4.88;3.05;;;;;;;;;;1463157;40;20419;-81
2021/05/04 02:14:44;;;;;;;4.30;2.72;;;;;;;;;;1465159;40;20434;-80
2021/05/04 02:15:45;;;;;;;4.75;2.95;;;;;;;;;;1465195;40;20415;-81
2021/05/04 02:16:45;;;;;;;5.55;2.65;;;;;;;;;;1465215;40;20411;-80
2021/05/04 02:17:47;;;;;;;5.20;3.38;;;;;;;;;;1470236;40;20418;-80
2021/05/04 02:18:48;;;;;;;6.22;3.83;;;;;;;;;;1468914;40;20429;-81
2021/05/04 02:19:49;;;;;;;5.50;3.38;;;;;;;;;;1464189;40;20813;-81
2021/05/04 02:20:50;;;;;;;5.18;3.10;;;;;;;;;;1465444;40;20462;-82
2021/05/04 02:21:51;;;;;;;4.00;3.40;;;;;;;;;;1466128;40;20418;-81
2021/05/04 02:22:52;;;;;;;5.57;3.67;;;;;;;;;;1465011;40;20412;-81
2021/05/04 02:23:53;;;;;;;6.07;3.40;;;;;;;;;;1461269;40;20439;-81
2021/05/04 02:24:54;;;;;;;4.90;3.55;;;;;;;;;;1465033;40;20415;-81
2021/05/04 02:25:56;;;;;;;5.07;3.78;;;;;;;;;;1465769;40;20435;-81
2021/05/04 02:26:57;;;;;;;6.40;3.50;;;;;;;;;;1469122;40;20406;-81
2021/05/04 02:28:00;;;;;;;4.32;3.00;;;;;;;;;;1465346;40;20411;-81
2021/05/04 02:29:04;;;;;;;5.75;3.78;;;;;;;;;;1465905;40;20433;-82
2021/05/04 02:30:06;;;;;;;5.03;3.83;;;;;;;;;;1469385;40;20884;-81
2021/05/04 02:31:08;;;;;;;8.70;3.75;;;;;;;;;;1464986;40;20578;-81
2021/05/04 02:32:09;;;;;;;8.07;3.75;;;;;;;;;;1462623;40;20441;-80
2021/05/04 02:33:10;;;;;;;6.88;3.92;;;;;;;;;;1461170;40;20405;-81
2021/05/04 02:34:11;;;;;;;6.63;3.95;;;;;;;;;;1462860;40;20842;-81
2021/05/04 02:35:13;;;;;;;6.05;3.92;;;;;;;;;;1465188;40;20399;-82
2021/05/04 02:36:14;;;;;;;6.38;3.72;;;;;;;;;;1464902;40;20423;-82
2021/05/04 02:37:15;;;;;;;6.32;3.50;;;;;;;;;;1469508;40;20428;-81
2021/05/04 02:38:17;;;;;;;2.85;2.55;;;;;;;;;;1469460;40;20406;-81
2021/05/04 02:39:18;;;;;;;4.65;3.38;;;;;;;;;;1469712;40;20787;-82
2021/05/04 02:40:19;;;;;;;6.13;3.28;;;;;;;;;;1460562;40;20428;-82
2021/05/04 02:41:20;;;;;;;7.78;3.72;;;;;;;;;;1457229;40;20422;-82
2021/05/04 02:42:21;;;;;;;5.63;3.53;;;;;;;;;;1465245;40;20419;-83
2021/05/04 02:43:22;;;;;;;4.78;3.03;;;;;;;;;;1469364;40;20432;-81
2021/05/04 02:44:23;;;;;;;3.45;2.40;;;;;;;;;;1461819;40;20424;-82
2021/05/04 02:45:24;;;;;;;3.88;3.08;;;;;;;;;;1460775;40;20401;-80
2021/05/04 02:46:29;;;;;;;3.72;2.80;;;;;;;;;;1457370;40;20418;-82
2021/05/04 02:47:30;;;;;;;3.03;2.80;;;;;;;;;;1465754;40;20412;-81
2021/05/04 02:48:37;;;;;;;4.28;3.22;;;;;;;;;;1464828;40;21293;-81
2021/05/04 02:49:38;;;;;;;3.60;2.67;;;;;;;;;;1461724;40;20435;-80
2021/05/04 02:50:40;;;;;;;4.75;3.70;;;;;;;;;;1461536;40;21110;-80
2021/05/04 02:51:41;;;;;;;7.78;3.63;;;;;;;;;;1465750;40;21044;-80
2021/05/04 02:52:42;;;;;;;4.35;3.33;;;;;;;;;;1465352;40;21057;-81
2021/05/04 02:53:43;;;;;;;8.90;3.55;;;;;;;;;;1457849;40;20421;-80
2021/05/04 02:54:45;;;;;;;5.25;3.10;;;;;;;;;;1461764;40;20632;-80
2021/05/04 02:55:46;;;;;;;4.80;3.30;;;;;;;;;;1461447;40;20838;-80
2021/05/04 02:56:47;;;;;;;6.57;2.92;;;;;;;;;;1465829;40;20470;-80
2021/05/04 02:57:51;;;;;;;6.38;3.13;;;;;;;;;;1465939;40;20403;-81
2021/05/04 02:58:52;;;;;;;7.55;3.42;;;;;;;;;;1460869;40;20413;-80
2021/05/04 02:59:53;;;;;;;3.63;2.80;;;;;;;;;;1465618;40;20749;-81
2021/05/04 03:00:55;;;;;;;3.80;3.22;;;;;;;;;;1469616;40;20409;-81
2021/05/04 03:01:56;;;;;;;6.60;3.05;;;;;;;;;;1470273;40;20468;-81
2021/05/04 03:02:58;;;;;;;4.63;3.25;;;;;;;;;;1465835;40;20658;-80
2021/05/04 03:03:59;;;;;;;4.57;2.80;;;;;;;;;;1465440;40;20804;-80
2021/05/04 03:05:00;;;;;;;5.63;2.30;;;;;;;;;;1465705;40;20465;-80
2021/05/04 03:06:02;;;;;;;5.68;2.30;;;;;;;;;;1465605;40;20423;-82
2021/05/04 03:07:03;;;;;;;8.68;2.63;;;;;;;;;;1465810;40;20418;-81
2021/05/04 03:08:04;;;;;;;6.05;2.30;;;;;;;;;;1469770;40;20393;-81
2021/05/04 03:09:06;;;;;;;6.03;2.58;;;;;;;;;;1469899;40;20405;-80
2021/05/04 03:10:08;;;;;;;6.18;1.98;;;;;;;;;;1470147;40;21036;-81
2021/05/04 03:11:09;;;;;;;6.90;1.67;;;;;;;;;;1467163;40;20397;-81
2021/05/04 03:12:10;;;;;;;5.03;2.45;;;;;;;;;;1459754;40;20960;-82
2021/05/04 03:13:11;;;;;;;3.92;2.03;;;;;;;;;;1465158;40;20427;-81
2021/05/04 03:14:12;;;;;;;5.75;2.10;;;;;;;;;;1470110;40;20809;-81
2021/05/04 03:15:13;;;;;;;5.50;1.92;;;;;;;;;;1465975;40;20407;-81
2021/05/04 03:16:14;;;;;;;5.35;2.10;;;;;;;;;;1461406;40;20421;-81
2021/05/04 03:17:16;;;;;;;3.90;1.80;;;;;;;;;;1461913;40;20408;-81
2021/05/04 03:18:19;;;;;;;4.72;1.90;;;;;;;;;;1465530;40;20883;-82
2021/05/04 03:19:21;;;;;;;5.97;2.42;;;;;;;;;;1470130;40;20783;-82
2021/05/04 03:20:23;;;;;;;5.95;2.13;;;;;;;;;;1469883;40;20540;-83
2021/05/04 03:21:29;;;;;;;4.75;1.77;;;;;;;;;;1465956;40;20383;-81
2021/05/04 03:22:30;;;;;;;9.33;2.13;;;;;;;;;;1466188;40;21070;-81
2021/05/04 03:23:31;;;;;;;3.22;1.33;;;;;;;;;;1470024;40;20483;-81
2021/05/04 03:24:32;;;;;;;4.07;1.75;;;;;;;;;;1466010;40;20395;-82
2021/05/04 03:25:33;;;;;;;7.80;2.30;;;;;;;;;;1466681;40;20935;-81
2021/05/04 03:26:34;;;;;;;5.15;1.40;;;;;;;;;;1459470;40;20411;-81
2021/05/04 03:27:37;;;;;;;6.85;1.77;;;;;;;;;;1458551;40;20676;-81
2021/05/04 03:28:38;;;;;;;4.28;1.83;;;;;;;;;;1465553;40;20419;-81
2021/05/04 03:29:39;;;;;;;3.80;1.67;;;;;;;;;;1466436;40;20419;-80
2021/05/04 03:30:40;;;;;;;3.70;1.33;;;;;;;;;;1465690;40;20939;-80
2021/05/04 03:31:41;;;;;;;6.72;1.77;;;;;;;;;;1462130;40;20453;-81
2021/05/04 03:32:43;;;;;;;3.65;1.50;;;;;;;;;;1461701;40;20424;-80
2021/05/04 03:33:45;;;;;;;4.88;1.27;;;;;;;;;;1466005;40;20422;-80
2021/05/04 03:34:46;;;;;;;3.85;1.40;;;;;;;;;;1465623;40;20426;-80
2021/05/04 03:35:47;;;;;;;8.07;1.33;;;;;;;;;;1459045;40;20407;-81
2021/05/04 03:36:48;;;;;;;4.28;1.60;;;;;;;;;;1461010;40;20413;-80
2021/05/04 03:37:49;;;;;;;4.57;1.40;;;;;;;;;;1462757;40;20440;-81
2021/05/04 03:38:50;;;;;;;3.97;1.40;;;;;;;;;;1464971;40;20428;-81
2021/05/04 03:39:51;;;;;;;4.88;1.27;;;;;;;;;;1465601;40;20413;-81
2021/05/04 03:40:54;;;;;;;6.20;1.30;;;;;;;;;;1463517;40;20425;-83
2021/05/04 03:41:55;;;;;;;4.27;1.40;;;;;;;;;;1467237;40;20401;-80
2021/05/04 03:42:57;;;;;;;4.50;1.25;;;;;;;;;;1471887;40;20428;-79
2021/05/04 03:43:58;;;;;;;4.38;1.40;;;;;;;;;;1474054;40;20430;-80
2021/05/04 03:44:59;;;;;;;4.22;1.60;;;;;;;;;;1469437;40;20407;-79
2021/05/04 03:46:00;;;;;;;5.75;1.88;;;;;;;;;;1470551;40;20406;-78
2021/05/04 03:47:01;;;;;;;4.35;1.40;;;;;;;;;;1469496;40;20407;-80
2021/05/04 03:48:02;;;;;;;7.22;1.23;;;;;;;;;;1468163;40;20505;-80
2021/05/04 03:49:03;;;;;;;6.78;1.90;;;;;;;;;;1468418;40;20407;-80
2021/05/04 03:50:06;;;;;;;7.25;1.70;;;;;;;;;;1463736;40;20428;-80
2021/05/04 03:51:07;;;;;;;7.40;1.98;;;;;;;;;;1462516;40;20473;-80
2021/05/04 03:52:11;;;;;;;9.05;1.88;;;;;;;;;;1470379;40;20779;-80
2021/05/04 03:53:12;;;;;;;6.72;1.80;;;;;;;;;;1470557;40;20418;-81
2021/05/04 03:54:13;;;;;;;6.78;2.03;;;;;;;;;;1470317;40;20408;-80
2021/05/04 03:55:15;;;;;;;6.85;2.03;;;;;;;;;;1470039;40;20671;-79
2021/05/04 03:56:16;;;;;;;7.70;1.85;;;;;;;;;;1464387;40;20415;-81
2021/05/04 03:57:17;;;;;;;7.70;2.25;;;;;;;;;;1462104;40;20397;-80
2021/05/04 03:58:18;;;;;;;5.53;1.85;;;;;;;;;;1460779;40;20409;-80
2021/05/04 03:59:19;;;;;;;6.47;1.65;;;;;;;;;;1457991;40;20455;-80
2021/05/04 04:00:20;;;;;;;9.15;2.13;;;;;;;;;;1465562;40;20404;-81
2021/05/04 04:01:22;;;;;;;5.53;1.65;;;;;;;;;;1469502;40;20425;-82
2021/05/04 04:02:23;;;;;;;4.30;1.58;;;;;;;;;;1465709;40;20450;-81
2021/05/04 04:03:24;;;;;;;6.68;2.10;;;;;;;;;;1465612;40;20813;-81
2021/05/04 04:04:25;;;;;;;6.45;1.83;;;;;;;;;;1470468;40;20445;-81
2021/05/04 04:05:28;;;;;;;8.50;1.90;;;;;;;;;;1470374;40;20494;-81
2021/05/04 04:06:29;;;;;;;10.73;2.30;;;;;;;;;;1465420;40;20466;-81
2021/05/04 04:07:30;;;;;;;9.43;2.28;;;;;;;;;;1465542;40;20414;-80
2021/05/04 04:08:31;;;;;;;10.75;3.35;;;;;;;;;;1465076;40;20455;-82
2021/05/04 04:09:32;;;;;;;11.95;3.30;;;;;;;;;;1465830;40;20403;-80
2021/05/04 04:10:33;;;;;;;18.17;3.88;;;;;;;;;;1465033;40;20486;-81
2021/05/04 04:11:34;;;;;;;20.83;3.67;;;;;;;;;;1459931;40;20402;-80
2021/05/04 04:12:35;;;;;;;25.00;4.03;;;;;;;;;;1457183;40;20773;-80
2021/05/04 04:13:36;;;;;;;23.35;4.78;;;;;;;;;;1461720;40;20420;-80
2021/05/04 04:14:37;;;;;;;22.73;4.30;;;;;;;;;;1459631;40;20428;-80
2021/05/04 04:15:38;;;;;;;20.07;3.67;;;;;;;;;;1466080;40;20532;-81
2021/05/04 04:16:40;;;;;;;22.42;5.15;;;;;;;;;;1470124;40;20537;-80
2021/05/04 04:17:42;;;;;;;20.85;5.30;;;;;;;;;;1465982;40;20538;-80
2021/05/04 04:18:43;;;;;;;30.13;6.15;;;;;;;;;;1465521;40;20411;-80
2021/05/04 04:19:44;;;;;;;30.55;5.30;;;;;;;;;;1465916;40;20466;-80
2021/05/04 04:20:45;;;;;;;30.13;5.72;;;;;;;;;;1465828;40;20404;-80
2021/05/04 04:21:48;;;;;;;28.95;5.43;;;;;;;;;;1469981;40;20486;-80
2021/05/04 04:22:50;;;;;;;24.53;6.13;;;;;;;;;;1465922;40;20895;-81
2021/05/04 04:23:51;;;;;;;28.40;6.43;;;;;;;;;;1462803;40;20428;-81
2021/05/04 04:24:55;;;;;;;26.65;4.60;;;;;;;;;;1469019;40;20419;-78
2021/05/04 04:25:56;;;;;;;25.83;5.13;;;;;;;;;;1473596;40;20395;-80
2021/05/04 04:26:57;;;;;;;24.13;5.35;;;;;;;;;;1468889;40;20422;-81
2021/05/04 04:27:58;;;;;;;26.20;6.18;;;;;;;;;;1467536;40;20399;-80
2021/05/04 04:28:59;;;;;;;31.30;5.18;;;;;;;;;;1467437;40;20812;-79
2021/05/04 04:30:00;;;;;;;22.70;4.78;;;;;;;;;;1474204;40;20413;-80
2021/05/04 04:31:01;;;;;;;27.83;5.45;;;;;;;;;;1475276;40;20402;-80
2021/05/04 04:32:02;;;;;;;20.10;3.72;;;;;;;;;;1470012;40;20399;-81
2021/05/04 04:33:04;;;;;;;19.23;3.70;;;;;;;;;;1464729;40;20526;-79
2021/05/04 04:34:06;;;;;;;19.60;4.03;;;;;;;;;;1467281;40;20411;-80
2021/05/04 04:35:07;;;;;;;15.88;3.80;;;;;;;;;;1471738;40;20483;-80
2021/05/04 04:36:08;;;;;;;22.48;4.53;;;;;;;;;;1471427;40;20423;-80
2021/05/04 04:37:09;;;;;;;16.83;3.33;;;;;;;;;;1471085;40;20683;-80
2021/05/04 04:38:11;;;;;;;20.70;4.35;;;;;;;;;;1470981;40;20519;-80
2021/05/04 04:39:13;;;;;;;22.40;5.10;;;;;;;;;;1470255;40;20410;-80
2021/05/04 04:40:14;;;;;;;25.30;4.63;;;;;;;;;;1466698;40;20410;-80
2021/05/04 04:41:15;;;;;;;34.90;6.22;;;;;;;;;;1465255;40;20449;-79
2021/05/04 04:42:16;;;;;;;29.90;7.22;;;;;;;;;;1468270;40;20404;-80
2021/05/04 04:43:17;;;;;;;31.13;5.68;;;;;;;;;;1471763;40;20405;-79
2021/05/04 04:44:18;;;;;;;30.27;6.50;;;;;;;;;;1467901;40;20477;-81
2021/05/04 04:45:19;;;;;;;33.30;6.50;;;;;;;;;;1468097;40;20411;-80
2021/05/04 04:46:21;;;;;;;35.22;7.28;;;;;;;;;;1467897;40;20407;-81
2021/05/04 04:47:23;;;;;;;41.60;7.47;;;;;;;;;;1468541;40;20412;-81
2021/05/04 04:48:24;;;;;;;33.60;7.55;;;;;;;;;;1466386;40;20402;-81
2021/05/04 04:49:26;;;;;;;40.55;10.05;;;;;;;;;;1468702;40;20667;-80
2021/05/04 04:50:27;;;;;;;41.40;8.50;;;;;;;;;;1465830;40;20410;-80
2021/05/04 04:51:28;;;;;;;38.17;9.10;;;;;;;;;;1465152;40;20420;-80
2021/05/04 04:52:29;;;;;;;37.45;8.05;;;;;;;;;;1470097;40;20417;-80
2021/05/04 04:53:30;;;;;;;37.45;8.68;;;;;;;;;;1470271;40;20807;-80
2021/05/04 04:54:33;;;;;;;28.65;7.80;;;;;;;;;;1465643;40;20415;-80
2021/05/04 04:55:34;;;;;;;31.00;7.65;;;;;;;;;;1465842;40;20408;-80
2021/05/04 04:56:35;;;;;;;30.15;6.53;;;;;;;;;;1463215;40;20423;-80
2021/05/04 04:57:36;;;;;;;30.33;6.88;;;;;;;;;;1461980;40;20428;-80
2021/05/04 04:58:37;;;;;;;29.52;5.65;;;;;;;;;;1465492;40;20433;-81
2021/05/04 04:59:38;;;;;;;26.73;6.40;;;;;;;;;;1465447;40;20478;-79
2021/05/04 05:00:39;;;;;;;27.88;5.22;;;;;;;;;;1464870;40;20446;-79
2021/05/04 05:01:40;;;;;;;31.77;5.43;;;;;;;;;;1469045;40;20426;-81
2021/05/04 05:02:41;;;;;;;25.92;5.70;;;;;;;;;;1461077;40;20447;-80
2021/05/04 05:03:42;;;;;;;24.25;5.03;;;;;;;;;;1461759;40;20421;-82
2021/05/04 05:04:49;;;;;;;20.42;4.65;;;;;;;;;;1457259;40;20422;-80
2021/05/04 05:05:50;;;;;;;19.70;3.75;;;;;;;;;;1457641;40;20476;-81
2021/05/04 05:06:52;;;;;;;18.65;4.30;;;;;;;;;;1457194;40;20430;-80
2021/05/04 05:07:53;;;;;;;19.08;4.45;;;;;;;;;;1457294;40;20419;-80
2021/05/04 05:08:54;;;;;;;18.58;2.97;;;;;;;;;;1457001;40;20422;-81
2021/05/04 05:09:55;;;;;;;21.77;4.82;;;;;;;;;;1461476;40;20417;-81
2021/05/04 05:10:56;;;;;;;16.77;3.85;;;;;;;;;;1460991;40;20775;-81
2021/05/04 05:12:05;;;;;;;23.73;3.38;;;;;;;;;;1462141;40;20402;-81
2021/05/04 05:13:06;;;;;;;20.55;4.65;;;;;;;;;;1457041;40;20419;-81
2021/05/04 05:14:08;;;;;;;18.45;2.70;;;;;;;;;;1461342;40;20416;-80
2021/05/04 05:15:10;;;;;;;18.23;3.55;;;;;;;;;;1465493;40;20407;-81
2021/05/04 05:16:12;;;;;;;17.92;4.00;;;;;;;;;;1460691;40;20408;-83
2021/05/04 05:17:16;;;;;;;18.20;3.63;;;;;;;;;;1467937;40;20441;-80
2021/05/04 05:18:18;;;;;;;15.45;3.42;;;;;;;;;;1469541;40;20409;-80
2021/05/04 05:19:19;;;;;;;20.45;4.70;;;;;;;;;;1470051;40;20402;-80
2021/05/04 05:20:20;;;;;;;21.02;4.85;;;;;;;;;;1469627;40;20649;-81
2021/05/04 05:21:22;;;;;;;18.17;4.15;;;;;;;;;;1469568;40;20656;-82
2021/05/04 05:22:23;;;;;;;20.58;4.25;;;;;;;;;;1465053;40;21080;-81
2021/05/04 05:23:24;;;;;;;20.10;4.25;;;;;;;;;;1464871;40;20697;-82
2021/05/04 05:24:25;;;;;;;20.40;4.78;;;;;;;;;;1469007;40;20426;-83
2021/05/04 05:25:26;;;;;;;16.58;3.80;;;;;;;;;;1469645;40;20418;-82
2021/05/04 05:26:28;;;;;;;13.73;4.03;;;;;;;;;;1467287;40;20457;-80
2021/05/04 05:27:30;;;;;;;19.67;3.60;;;;;;;;;;1468454;40;20398;-81
2021/05/04 05:28:32;;;;;;;15.82;3.83;;;;;;;;;;1461345;40;20444;-80
2021/05/04 05:29:35;;;;;;;19.92;4.82;;;;;;;;;;1459926;40;20417;-80
2021/05/04 05:30:36;;;;;;;20.20;4.63;;;;;;;;;;1469488;40;20408;-82
2021/05/04 05:31:37;;;;;;;19.27;5.50;;;;;;;;;;1464595;40;20974;-80
2021/05/04 05:32:38;;;;;;;21.92;4.55;;;;;;;;;;1461417;40;20413;-81
2021/05/04 05:33:40;;;;;;;18.35;4.18;;;;;;;;;;1465425;40;20411;-81
2021/05/04 05:34:41;;;;;;;25.17;5.57;;;;;;;;;;1470111;40;20426;-80
2021/05/04 05:35:42;;;;;;;20.67;5.40;;;;;;;;;;1464982;40;20960;-81
2021/05/04 05:37:00;;;;;;;23.20;4.63;;;;;;;;;;1458253;40;20859;-80
2021/05/04 05:38:05;;;;;;;18.30;4.75;;;;;;;;;;1459603;40;20427;-81
2021/05/04 05:39:06;;;;;;;25.80;4.87;;;;;;;;;;1465354;40;20549;-80
2021/05/04 05:40:07;;;;;;;25.17;4.53;;;;;;;;;;1468907;40;20421;-80
2021/05/04 05:41:08;;;;;;;19.05;3.92;;;;;;;;;;1463808;40;20421;-82
2021/05/04 05:42:10;;;;;;;26.60;5.93;;;;;;;;;;1461094;40;20586;-82
2021/05/04 05:43:11;;;;;;;26.20;5.63;;;;;;;;;;1465259;40;20395;-81
2021/05/04 05:44:13;;;;;;;28.98;6.20;;;;;;;;;;1464677;40;20702;-80
2021/05/04 05:45:16;;;;;;;28.33;5.75;;;;;;;;;;1461058;40;20562;-81
2021/05/04 05:46:17;;;;;;;24.35;5.82;;;;;;;;;;1465401;40;20407;-81
2021/05/04 05:47:18;;;;;;;31.70;7.10;;;;;;;;;;1462464;40;20432;-80
2021/05/04 05:48:20;;;;;;;27.73;7.03;;;;;;;;;;1456712;40;20480;-80
2021/05/04 05:49:21;;;;;;;32.33;7.57;;;;;;;;;;1457439;40;20407;-81
2021/05/04 05:50:22;;;;;;;32.75;7.03;;;;;;;;;;1460901;40;20444;-82
2021/05/04 05:51:23;;;;;;;35.50;7.30;;;;;;;;;;1461624;40;20417;-82
2021/05/04 05:52:24;;;;;;;30.63;6.57;;;;;;;;;;1465474;40;20407;-82
2021/05/04 05:53:25;;;;;;;27.52;5.57;;;;;;;;;;1465888;40;20404;-83
2021/05/04 05:54:27;;;;;;;27.27;6.30;;;;;;;;;;1463441;40;20403;-82
2021/05/04 05:55:31;;;;;;;35.13;6.70;;;;;;;;;;1465005;40;20961;-80
2021/05/04 05:56:32;;;;;;;36.95;7.05;;;;;;;;;;1465110;40;20941;-80
2021/05/04 05:57:33;;;;;;;35.72;7.38;;;;;;;;;;1465297;40;20410;-80
2021/05/04 05:58:34;;;;;;;35.03;8.15;;;;;;;;;;1465395;40;20419;-80
2021/05/04 05:59:35;;;;;;;33.92;7.68;;;;;;;;;;1461345;40;20409;-80
2021/05/04 06:00:36;;;;;;;41.13;7.50;;;;;;;;;;1452617;40;20420;-80
2021/05/04 06:01:37;;;;;;;30.80;6.83;;;;;;;;;;1463059;40;20455;-79
2021/05/04 06:02:38;;;;;;;37.63;8.13;;;;;;;;;;1469779;40;20414;-80
2021/05/04 06:03:40;;;;;;;35.67;6.88;;;;;;;;;;1465144;40;20407;-80
2021/05/04 06:04:41;;;;;;;30.88;6.88;;;;;;;;;;1464709;40;20914;-80
2021/05/04 06:05:42;;;;;;;33.60;7.05;;;;;;;;;;1465239;40;20430;-80
2021/05/04 06:06:43;;;;;;;31.58;7.85;;;;;;;;;;1460148;40;20424;-80
2021/05/04 06:07:44;;;;;;;39.75;8.18;;;;;;;;;;1465377;40;20435;-80